createdAt,value
2018-10-18T00:00:25.114Z,0.00
2018-10-18T00:01:25.110Z,0.00
2018-10-18T00:02:25.107Z,0.00
2018-10-18T00:03:25.210Z,0.00
2018-10-18T00:04:25.102Z,0.00
2018-10-18T00:05:25.096Z,0.00
2018-10-18T00:06:25.102Z,0.00
2018-10-18T00:07:25.093Z,0.00
2018-10-18T00:08:25.118Z,0.00
2018-10-18T00:09:25.084Z,0.00
2018-10-18T00:10:25.084Z,0.00
2018-10-18T00:11:25.084Z,0.00
2018-10-18T00:12:25.076Z,0.00
2018-10-18T00:13:25.104Z,0.00
2018-10-18T00:14:25.075Z,0.00
2018-10-18T00:15:25.068Z,0.00
2018-10-18T00:16:25.063Z,0.00
2018-10-18T00:17:25.069Z,0.00
2018-10-18T00:18:25.088Z,0.00
2018-10-18T00:19:25.057Z,0.00
2018-10-18T00:20:25.059Z,0.00
2018-10-18T00:21:25.052Z,0.00
2018-10-18T00:22:25.052Z,0.00
2018-10-18T00:23:25.072Z,0.00
2018-10-18T00:24:25.041Z,0.00
2018-10-18T00:25:25.040Z,0.00
2018-10-18T00:26:25.029Z,0.00
2018-10-18T00:27:25.051Z,0.00
2018-10-18T00:28:25.063Z,0.00
2018-10-18T00:29:25.030Z,0.00
2018-10-18T00:30:25.038Z,0.00
2018-10-18T00:31:25.018Z,0.00
2018-10-18T00:32:25.016Z,0.00
2018-10-18T00:33:25.038Z,0.00
2018-10-18T00:34:25.010Z,0.00
2018-10-18T00:35:25.007Z,0.00
2018-10-18T00:36:25.003Z,0.00
2018-10-18T00:37:24.999Z,0.00
2018-10-18T00:38:25.027Z,0.00
2018-10-18T00:39:25.024Z,0.00
2018-10-18T00:40:24.992Z,0.00
2018-10-18T00:41:24.987Z,0.00
2018-10-18T00:42:24.987Z,0.00
2018-10-18T00:43:25.007Z,0.00
2018-10-18T00:44:24.983Z,0.00
2018-10-18T00:45:24.980Z,0.00
2018-10-18T00:46:24.976Z,0.00
2018-10-18T00:47:24.966Z,0.00
2018-10-18T00:48:24.991Z,0.00
2018-10-18T00:49:24.992Z,0.00
2018-10-18T00:50:24.964Z,0.00
2018-10-18T00:51:24.957Z,0.00
2018-10-18T00:52:24.952Z,0.00
2018-10-18T00:53:24.980Z,0.00
2018-10-18T00:54:24.953Z,0.00
2018-10-18T00:55:24.958Z,0.00
2018-10-18T00:56:24.941Z,0.00
2018-10-18T00:57:24.937Z,0.00
2018-10-18T00:58:24.960Z,0.00
2018-10-18T00:59:24.933Z,0.00
2018-10-18T01:00:24.924Z,0.00
2018-10-18T01:01:24.923Z,0.00
2018-10-18T01:02:24.923Z,0.00
2018-10-18T01:03:24.946Z,0.00
2018-10-18T01:04:24.914Z,0.00
2018-10-18T01:05:24.914Z,0.00
2018-10-18T01:06:24.910Z,0.00
2018-10-18T01:07:24.909Z,0.00
2018-10-18T01:08:24.929Z,0.00
2018-10-18T01:09:24.897Z,0.00
2018-10-18T01:10:24.895Z,0.00
2018-10-18T01:11:24.893Z,0.00
2018-10-18T01:12:24.919Z,0.00
2018-10-18T01:13:24.915Z,0.00
2018-10-18T01:14:24.885Z,0.00
2018-10-18T01:15:24.879Z,0.00
2018-10-18T01:16:24.874Z,0.00
2018-10-18T01:17:24.874Z,0.00
2018-10-18T01:18:24.899Z,0.00
2018-10-18T01:19:24.864Z,0.00
2018-10-18T01:20:24.865Z,0.00
2018-10-18T01:21:24.864Z,0.00
2018-10-18T01:22:24.858Z,0.00
2018-10-18T01:23:24.883Z,0.00
2018-10-18T01:24:24.851Z,0.00
2018-10-18T01:25:24.848Z,0.00
2018-10-18T01:26:24.844Z,0.00
2018-10-18T01:27:24.838Z,0.00
2018-10-18T01:28:24.868Z,0.00
2018-10-18T01:29:24.831Z,0.00
2018-10-18T01:30:24.829Z,0.00
2018-10-18T01:31:24.829Z,0.00
2018-10-18T01:32:24.821Z,0.00
2018-10-18T01:33:24.849Z,0.00
2018-10-18T01:34:24.818Z,0.00
2018-10-18T01:35:24.812Z,0.00
2018-10-18T01:36:24.808Z,0.00
2018-10-18T01:37:24.809Z,0.00
2018-10-18T01:38:24.841Z,0.00
2018-10-18T01:39:24.801Z,0.00
2018-10-18T01:40:24.795Z,0.00
2018-10-18T01:41:24.797Z,0.00
2018-10-18T01:42:24.787Z,0.00
2018-10-18T01:43:24.824Z,0.00
2018-10-18T01:44:24.795Z,0.00
2018-10-18T01:45:24.780Z,0.00
2018-10-18T01:46:24.777Z,0.00
2018-10-18T01:47:24.773Z,0.00
2018-10-18T01:48:24.803Z,0.00
2018-10-18T01:49:24.767Z,0.00
2018-10-18T01:50:24.759Z,0.00
2018-10-18T01:51:24.762Z,0.00
2018-10-18T01:52:24.761Z,0.00
2018-10-18T01:53:24.782Z,0.00
2018-10-18T01:54:24.766Z,0.00
2018-10-18T01:55:24.768Z,0.00
2018-10-18T01:56:24.742Z,0.00
2018-10-18T01:57:24.739Z,0.00
2018-10-18T01:58:24.766Z,0.00
2018-10-18T01:59:24.740Z,0.00
2018-10-18T02:00:24.731Z,0.00
2018-10-18T02:01:24.724Z,0.00
2018-10-18T02:02:24.729Z,0.00
2018-10-18T02:03:24.748Z,0.00
2018-10-18T02:04:24.715Z,0.00
2018-10-18T02:05:24.711Z,0.00
2018-10-18T02:06:24.709Z,0.00
2018-10-18T02:07:24.710Z,0.00
2018-10-18T02:08:24.732Z,0.00
2018-10-18T02:09:24.700Z,0.00
2018-10-18T02:10:24.693Z,0.00
2018-10-18T02:11:24.689Z,0.00
2018-10-18T02:12:24.690Z,0.00
2018-10-18T02:13:24.712Z,0.00
2018-10-18T02:14:24.682Z,0.00
2018-10-18T02:15:24.676Z,0.00
2018-10-18T02:16:24.680Z,0.00
2018-10-18T02:17:24.672Z,0.00
2018-10-18T02:18:24.697Z,0.00
2018-10-18T02:19:24.666Z,0.00
2018-10-18T02:20:24.661Z,0.00
2018-10-18T02:21:24.657Z,0.00
2018-10-18T02:22:24.656Z,0.00
2018-10-18T02:23:24.685Z,0.00
2018-10-18T02:24:24.671Z,0.00
2018-10-18T02:25:24.641Z,0.00
2018-10-18T02:26:24.641Z,0.00
2018-10-18T02:27:24.637Z,0.00
2018-10-18T02:28:24.634Z,0.00
2018-10-18T02:29:24.654Z,0.00
2018-10-18T02:30:24.631Z,0.00
2018-10-18T02:31:24.622Z,0.00
2018-10-18T02:32:24.622Z,0.00
2018-10-18T02:33:24.643Z,0.00
2018-10-18T02:34:24.613Z,0.00
2018-10-18T02:35:24.611Z,0.00
2018-10-18T02:36:24.607Z,0.00
2018-10-18T02:37:24.606Z,0.00
2018-10-18T02:38:24.632Z,0.00
2018-10-18T02:39:24.598Z,0.00
2018-10-18T02:40:24.591Z,0.00
2018-10-18T02:41:24.590Z,0.00
2018-10-18T02:42:24.584Z,0.00
2018-10-18T02:43:24.612Z,0.00
2018-10-18T02:44:24.576Z,0.00
2018-10-18T02:45:24.576Z,0.00
2018-10-18T02:46:24.573Z,0.00
2018-10-18T02:47:24.567Z,0.00
2018-10-18T02:48:24.595Z,0.00
2018-10-18T02:49:24.559Z,0.00
2018-10-18T02:50:24.553Z,0.00
2018-10-18T02:51:24.552Z,0.00
2018-10-18T02:52:24.545Z,0.00
2018-10-18T02:53:24.572Z,0.00
2018-10-18T02:54:24.543Z,0.00
2018-10-18T02:55:24.545Z,0.00
2018-10-18T02:56:24.534Z,0.00
2018-10-18T02:57:24.533Z,0.00
2018-10-18T02:58:24.557Z,0.00
2018-10-18T02:59:24.525Z,0.00
2018-10-18T03:00:24.521Z,0.00
2018-10-18T03:01:24.518Z,0.00
2018-10-18T03:02:24.612Z,0.00
2018-10-18T03:03:24.538Z,0.00
2018-10-18T03:04:24.506Z,0.00
2018-10-18T03:05:24.503Z,0.00
2018-10-18T03:06:24.506Z,0.00
2018-10-18T03:07:24.499Z,0.00
2018-10-18T03:08:24.523Z,0.00
2018-10-18T03:09:24.488Z,0.00
2018-10-18T03:10:24.491Z,0.00
2018-10-18T03:11:24.488Z,0.00
2018-10-18T03:12:24.479Z,0.00
2018-10-18T03:13:24.511Z,0.00
2018-10-18T03:14:24.472Z,0.00
2018-10-18T03:15:24.473Z,0.00
2018-10-18T03:16:24.472Z,0.00
2018-10-18T03:17:24.462Z,0.00
2018-10-18T03:18:24.485Z,0.00
2018-10-18T03:19:24.456Z,0.00
2018-10-18T03:20:24.452Z,0.00
2018-10-18T03:21:24.443Z,0.00
2018-10-18T03:22:24.444Z,0.00
2018-10-18T03:23:24.469Z,0.00
2018-10-18T03:24:24.435Z,0.00
2018-10-18T03:25:24.449Z,0.00
2018-10-18T03:26:24.430Z,0.00
2018-10-18T03:27:24.424Z,0.00
2018-10-18T03:28:24.445Z,0.00
2018-10-18T03:29:24.417Z,0.00
2018-10-18T03:30:24.429Z,0.00
2018-10-18T03:31:24.417Z,0.00
2018-10-18T03:32:24.405Z,0.00
2018-10-18T03:33:24.438Z,0.00
2018-10-18T03:34:24.404Z,0.00
2018-10-18T03:35:24.396Z,0.00
2018-10-18T03:36:24.394Z,0.00
2018-10-18T03:37:24.387Z,0.00
2018-10-18T03:38:24.414Z,0.00
2018-10-18T03:39:24.386Z,0.00
2018-10-18T03:40:24.469Z,0.00
2018-10-18T03:41:24.446Z,0.00
2018-10-18T03:42:24.480Z,0.00
2018-10-18T03:43:24.398Z,0.00
2018-10-18T03:44:24.367Z,0.00
2018-10-18T03:45:24.363Z,0.00
2018-10-18T03:46:24.360Z,0.00
2018-10-18T03:47:24.362Z,0.00
2018-10-18T03:48:24.403Z,0.00
2018-10-18T03:49:24.352Z,0.00
2018-10-18T03:50:24.346Z,0.00
2018-10-18T03:51:24.339Z,0.00
2018-10-18T03:52:24.339Z,0.00
2018-10-18T03:53:24.362Z,0.00
2018-10-18T03:54:24.333Z,0.00
2018-10-18T03:55:24.339Z,0.00
2018-10-18T03:56:24.327Z,0.00
2018-10-18T03:57:24.325Z,0.00
2018-10-18T03:58:24.359Z,0.00
2018-10-18T03:59:24.403Z,0.00
2018-10-18T04:00:24.317Z,0.00
2018-10-18T04:01:24.311Z,0.00
2018-10-18T04:02:24.320Z,0.00
2018-10-18T04:03:24.337Z,0.00
2018-10-18T04:04:24.296Z,0.00
2018-10-18T04:05:24.300Z,0.00
2018-10-18T04:06:24.315Z,0.00
2018-10-18T04:07:24.292Z,0.00
2018-10-18T04:08:24.320Z,0.00
2018-10-18T04:09:24.287Z,0.00
2018-10-18T04:10:24.284Z,0.00
2018-10-18T04:11:24.280Z,0.00
2018-10-18T04:12:24.363Z,0.00
2018-10-18T04:13:24.391Z,0.00
2018-10-18T04:14:24.273Z,0.00
2018-10-18T04:15:24.308Z,0.00
2018-10-18T04:16:24.272Z,0.00
2018-10-18T04:17:24.265Z,0.00
2018-10-18T04:18:24.310Z,0.00
2018-10-18T04:19:24.289Z,0.00
2018-10-18T04:20:24.282Z,0.00
2018-10-18T04:21:24.254Z,0.00
2018-10-18T04:22:25.382Z,0.00
2018-10-18T04:23:24.281Z,0.00
2018-10-18T04:24:24.242Z,0.00
2018-10-18T04:25:24.270Z,0.00
2018-10-18T04:26:24.239Z,0.00
2018-10-18T04:27:24.237Z,0.00
2018-10-18T04:28:24.270Z,0.00
2018-10-18T04:29:24.226Z,0.00
2018-10-18T04:30:24.258Z,0.00
2018-10-18T04:31:24.225Z,0.00
2018-10-18T04:32:24.221Z,0.00
2018-10-18T04:33:24.219Z,0.00
2018-10-18T04:34:24.246Z,0.00
2018-10-18T04:35:24.216Z,0.00
2018-10-18T04:36:24.211Z,0.00
2018-10-18T04:37:24.240Z,0.00
2018-10-18T04:38:24.244Z,0.00
2018-10-18T04:39:24.209Z,0.00
2018-10-18T04:40:24.202Z,0.00
2018-10-18T04:41:24.200Z,0.00
2018-10-18T04:42:24.206Z,0.00
2018-10-18T04:43:24.223Z,0.00
2018-10-18T04:44:24.195Z,0.00
2018-10-18T04:45:24.219Z,0.00
2018-10-18T04:46:24.185Z,0.00
2018-10-18T04:47:24.302Z,0.00
2018-10-18T04:48:24.278Z,0.00
2018-10-18T04:49:24.181Z,0.00
2018-10-18T04:50:24.175Z,0.00
2018-10-18T04:51:24.176Z,0.00
2018-10-18T04:52:24.173Z,0.00
2018-10-18T04:53:24.207Z,0.00
2018-10-18T04:54:24.173Z,0.00
2018-10-18T04:55:24.167Z,0.00
2018-10-18T04:56:24.160Z,0.00
2018-10-18T04:57:24.160Z,0.00
2018-10-18T04:58:24.183Z,0.00
2018-10-18T04:59:24.160Z,0.00
2018-10-18T05:00:24.148Z,0.00
2018-10-18T05:01:24.340Z,0.00
2018-10-18T05:02:24.151Z,0.00
2018-10-18T05:03:29.147Z,0.00
2018-10-18T05:04:24.146Z,0.00
2018-10-18T05:05:24.141Z,0.00
2018-10-18T05:06:24.134Z,0.00
2018-10-18T05:07:24.135Z,0.00
2018-10-18T05:08:24.173Z,4.00
2018-10-18T05:09:24.130Z,4.00
2018-10-18T05:10:24.125Z,0.00
2018-10-18T05:11:24.136Z,4.00
2018-10-18T05:12:24.125Z,4.00
2018-10-18T05:13:24.151Z,4.00
2018-10-18T05:14:24.117Z,8.00
2018-10-18T05:15:24.153Z,8.00
2018-10-18T05:16:24.110Z,12.00
2018-10-18T05:17:24.110Z,16.00
2018-10-18T05:18:24.134Z,16.00
2018-10-18T05:19:24.103Z,20.00
2018-10-18T05:20:24.098Z,24.00
2018-10-18T05:21:24.100Z,28.00
2018-10-18T05:22:24.095Z,32.00
2018-10-18T05:23:24.120Z,36.00
2018-10-18T05:24:24.090Z,44.00
2018-10-18T05:25:24.145Z,44.00
2018-10-18T05:26:24.083Z,56.00
2018-10-18T05:27:24.085Z,60.00
2018-10-18T05:28:24.107Z,64.00
2018-10-18T05:29:24.075Z,76.00
2018-10-18T05:30:24.075Z,92.00
2018-10-18T05:31:24.094Z,112.00
2018-10-18T05:32:24.070Z,132.00
2018-10-18T05:33:24.096Z,152.00
2018-10-18T05:34:24.091Z,176.00
2018-10-18T05:35:24.058Z,204.00
2018-10-18T05:36:24.056Z,232.00
2018-10-18T05:37:24.060Z,264.00
2018-10-18T05:38:24.052Z,292.00
2018-10-18T05:39:24.080Z,328.00
2018-10-18T05:40:24.045Z,360.00
2018-10-18T05:41:24.042Z,404.00
2018-10-18T05:42:24.037Z,440.00
2018-10-18T05:43:24.040Z,484.00
2018-10-18T05:44:24.065Z,528.00
2018-10-18T05:45:24.063Z,564.00
2018-10-18T05:46:24.032Z,600.00
2018-10-18T05:47:24.117Z,648.00
2018-10-18T05:48:24.028Z,700.00
2018-10-18T05:49:24.054Z,764.00
2018-10-18T05:50:24.022Z,840.00
2018-10-18T05:51:24.021Z,924.00
2018-10-18T05:52:24.022Z,1012.00
2018-10-18T05:53:24.066Z,1088.00
2018-10-18T05:54:24.038Z,1148.00
2018-10-18T05:55:24.015Z,1212.00
2018-10-18T05:56:24.035Z,1260.00
2018-10-18T05:57:24.003Z,1328.00
2018-10-18T05:58:24.917Z,1416.00
2018-10-18T05:59:24.031Z,1492.00
2018-10-18T06:00:24.067Z,1592.00
2018-10-18T06:01:23.995Z,1680.00
2018-10-18T06:02:27.827Z,1792.00
2018-10-18T06:03:23.990Z,1864.00
2018-10-18T06:04:24.014Z,1928.00
2018-10-18T06:05:23.988Z,1984.00
2018-10-18T06:06:23.979Z,2032.00
2018-10-18T06:07:23.980Z,2076.00
2018-10-18T06:08:23.975Z,2152.00
2018-10-18T06:09:24.003Z,2256.00
2018-10-18T06:10:23.997Z,2368.00
2018-10-18T06:11:23.968Z,2420.00
2018-10-18T06:12:23.972Z,2428.00
2018-10-18T06:13:23.968Z,2412.00
2018-10-18T06:14:23.989Z,2444.00
2018-10-18T06:15:23.960Z,2524.00
2018-10-18T06:16:23.960Z,2656.00
2018-10-18T06:17:23.957Z,2884.00
2018-10-18T06:18:23.960Z,3208.00
2018-10-18T06:19:23.981Z,3356.00
2018-10-18T06:20:23.948Z,3332.00
2018-10-18T06:21:23.945Z,3112.00
2018-10-18T06:22:23.945Z,2952.00
2018-10-18T06:23:23.989Z,2908.00
2018-10-18T06:24:23.976Z,2904.00
2018-10-18T06:25:23.937Z,2932.00
2018-10-18T06:26:23.937Z,2908.00
2018-10-18T06:27:23.934Z,2844.00
2018-10-18T06:28:23.925Z,2748.00
2018-10-18T06:29:23.957Z,2708.00
2018-10-18T06:30:23.925Z,2736.00
2018-10-18T06:31:23.927Z,2792.00
2018-10-18T06:32:23.924Z,2844.00
2018-10-18T06:33:23.919Z,2884.00
2018-10-18T06:34:23.943Z,2920.00
2018-10-18T06:35:23.916Z,2984.00
2018-10-18T06:36:23.910Z,3008.00
2018-10-18T06:37:23.925Z,3044.00
2018-10-18T06:38:23.912Z,3088.00
2018-10-18T06:39:23.975Z,3096.00
2018-10-18T06:40:23.907Z,3116.00
2018-10-18T06:41:23.904Z,3180.00
2018-10-18T06:42:23.898Z,3264.00
2018-10-18T06:43:23.897Z,3356.00
2018-10-18T06:44:23.922Z,3436.00
2018-10-18T06:45:23.890Z,3480.00
2018-10-18T06:46:23.900Z,3556.00
2018-10-18T06:47:23.912Z,3628.00
2018-10-18T06:48:23.882Z,3704.00
2018-10-18T06:49:23.934Z,3804.00
2018-10-18T06:50:23.880Z,3944.00
2018-10-18T06:51:23.879Z,4100.00
2018-10-18T06:52:23.900Z,4280.00
2018-10-18T06:53:23.880Z,4360.00
2018-10-18T06:54:23.900Z,4380.00
2018-10-18T06:55:23.868Z,4500.00
2018-10-18T06:56:23.874Z,4808.00
2018-10-18T06:57:23.864Z,5144.00
2018-10-18T06:58:23.864Z,5540.00
2018-10-18T06:59:23.893Z,5888.00
2018-10-18T07:00:23.882Z,6168.00
2018-10-18T07:01:23.856Z,6504.00
2018-10-18T07:02:23.852Z,6812.00
2018-10-18T07:03:23.853Z,7092.00
2018-10-18T07:04:23.876Z,7440.00
2018-10-18T07:05:23.847Z,7856.00
2018-10-18T07:06:23.841Z,8276.00
2018-10-18T07:07:23.845Z,8704.00
2018-10-18T07:08:23.841Z,9112.00
2018-10-18T07:09:23.865Z,9456.00
2018-10-18T07:10:23.840Z,9736.00
2018-10-18T07:11:23.837Z,9924.00
2018-10-18T07:12:23.835Z,10128.00
2018-10-18T07:13:23.830Z,10232.00
2018-10-18T07:14:23.857Z,10480.00
2018-10-18T07:15:23.833Z,10612.00
2018-10-18T07:16:23.830Z,10252.00
2018-10-18T07:17:23.831Z,9644.00
2018-10-18T07:18:23.826Z,9096.00
2018-10-18T07:19:23.849Z,8740.00
2018-10-18T07:20:23.824Z,8524.00
2018-10-18T07:21:23.815Z,8392.00
2018-10-18T07:22:23.822Z,8296.00
2018-10-18T07:23:23.850Z,8264.00
2018-10-18T07:24:23.815Z,8500.00
2018-10-18T07:25:23.851Z,8712.00
2018-10-18T07:26:23.815Z,8328.00
2018-10-18T07:27:23.838Z,7944.00
2018-10-18T07:28:23.811Z,7688.00
2018-10-18T07:29:23.867Z,7496.00
2018-10-18T07:30:23.807Z,7332.00
2018-10-18T07:31:23.807Z,7280.00
2018-10-18T07:32:23.803Z,7260.00
2018-10-18T07:33:23.807Z,7148.00
2018-10-18T07:34:23.839Z,7028.00
2018-10-18T07:35:23.804Z,6924.00
2018-10-18T07:36:23.806Z,6836.00
2018-10-18T07:37:23.808Z,6712.00
2018-10-18T07:38:23.831Z,6516.00
2018-10-18T07:39:23.804Z,6348.00
2018-10-18T07:40:23.803Z,6180.00
2018-10-18T07:41:23.816Z,6012.00
2018-10-18T07:42:23.800Z,5864.00
2018-10-18T07:43:23.824Z,5728.00
2018-10-18T07:44:23.800Z,5632.00
2018-10-18T07:45:23.797Z,5552.00
2018-10-18T07:46:23.792Z,5436.00
2018-10-18T07:47:23.820Z,5308.00
2018-10-18T07:48:23.826Z,5148.00
2018-10-18T07:49:23.821Z,5036.00
2018-10-18T07:50:23.794Z,4980.00
2018-10-18T07:51:23.796Z,4964.00
2018-10-18T07:52:23.790Z,5020.00
2018-10-18T07:53:23.838Z,5156.00
2018-10-18T07:54:23.826Z,5404.00
2018-10-18T07:55:23.787Z,5748.00
2018-10-18T07:56:23.791Z,6088.00
2018-10-18T07:57:23.791Z,6528.00
2018-10-18T07:58:23.790Z,7028.00
2018-10-18T07:59:23.818Z,7660.00
2018-10-18T08:00:23.894Z,8424.00
2018-10-18T08:01:23.784Z,9624.00
2018-10-18T08:02:23.781Z,11100.00
2018-10-18T08:03:23.782Z,13112.00
2018-10-18T08:04:23.808Z,14816.00
2018-10-18T08:05:23.785Z,16608.00
2018-10-18T08:06:23.788Z,18208.00
2018-10-18T08:07:23.781Z,19392.00
2018-10-18T08:08:23.779Z,19424.00
2018-10-18T08:09:23.839Z,17824.00
2018-10-18T08:10:23.822Z,17036.00
2018-10-18T08:11:23.779Z,17824.00
2018-10-18T08:12:23.780Z,17096.00
2018-10-18T08:13:23.780Z,17728.00
2018-10-18T08:14:23.807Z,18176.00
2018-10-18T08:15:23.787Z,18240.00
2018-10-18T08:16:23.780Z,18400.00
2018-10-18T08:17:23.841Z,19104.00
2018-10-18T08:18:23.783Z,19264.00
2018-10-18T08:19:23.817Z,19744.00
2018-10-18T08:20:23.792Z,19104.00
2018-10-18T08:21:23.788Z,18496.00
2018-10-18T08:22:24.027Z,18752.00
2018-10-18T08:23:23.821Z,18688.00
2018-10-18T08:24:24.767Z,17920.00
2018-10-18T08:25:23.842Z,17340.00
2018-10-18T08:26:24.071Z,17384.00
2018-10-18T08:27:23.805Z,17600.00
2018-10-18T08:28:23.810Z,17300.00
2018-10-18T08:29:23.818Z,18752.00
2018-10-18T08:30:23.849Z,18592.00
2018-10-18T08:31:24.007Z,18656.00
2018-10-18T08:32:24.266Z,18944.00
2018-10-18T08:33:26.403Z,18880.00
2018-10-18T08:34:27.871Z,18304.00
2018-10-18T08:35:23.901Z,19744.00
2018-10-18T08:36:23.846Z,20768.00
2018-10-18T08:37:23.861Z,20352.00
2018-10-18T08:38:23.851Z,19552.00
2018-10-18T08:39:23.858Z,19616.00
2018-10-18T08:40:24.013Z,19936.00
2018-10-18T08:41:24.261Z,19424.00
2018-10-18T08:42:23.867Z,19584.00
2018-10-18T08:43:23.871Z,20544.00
2018-10-18T08:44:23.951Z,22720.00
2018-10-18T08:45:24.319Z,23136.00
2018-10-18T08:46:23.892Z,23040.00
2018-10-18T08:47:23.887Z,24224.00
2018-10-18T08:48:23.893Z,24480.00
2018-10-18T08:49:23.888Z,23584.00
2018-10-18T08:50:23.924Z,22368.00
2018-10-18T08:51:23.897Z,20864.00
2018-10-18T08:52:23.901Z,20384.00
2018-10-18T08:53:23.904Z,18976.00
2018-10-18T08:54:23.943Z,17504.00
2018-10-18T08:55:23.994Z,18400.00
2018-10-18T08:56:23.921Z,20032.00
2018-10-18T08:57:25.422Z,20960.00
2018-10-18T08:58:23.925Z,21088.00
2018-10-18T08:59:23.959Z,21376.00
2018-10-18T09:00:23.957Z,21344.00
2018-10-18T09:01:23.933Z,20128.00
2018-10-18T09:02:23.937Z,18432.00
2018-10-18T09:03:24.381Z,18304.00
2018-10-18T09:04:23.941Z,18560.00
2018-10-18T09:05:23.973Z,18912.00
2018-10-18T09:06:23.950Z,19136.00
2018-10-18T09:07:23.956Z,18400.00
2018-10-18T09:08:23.957Z,17056.00
2018-10-18T09:09:23.986Z,16500.00
2018-10-18T09:10:23.960Z,16696.00
2018-10-18T09:11:23.961Z,18240.00
2018-10-18T09:12:23.971Z,19456.00
2018-10-18T09:13:23.971Z,20768.00
2018-10-18T09:14:24.443Z,22048.00
2018-10-18T09:15:23.975Z,22016.00
2018-10-18T09:16:23.978Z,24352.00
2018-10-18T09:17:23.987Z,25376.00
2018-10-18T09:18:23.983Z,26784.00
2018-10-18T09:19:24.016Z,25376.00
2018-10-18T09:20:23.990Z,25952.00
2018-10-18T09:21:23.999Z,25152.00
2018-10-18T09:22:24.023Z,23648.00
2018-10-18T09:23:24.007Z,23456.00
2018-10-18T09:24:24.032Z,25856.00
2018-10-18T09:25:24.358Z,27136.00
2018-10-18T09:26:24.029Z,28416.00
2018-10-18T09:27:24.023Z,28352.00
2018-10-18T09:28:24.027Z,29184.00
2018-10-18T09:29:24.063Z,28800.00
2018-10-18T09:30:24.056Z,26464.00
2018-10-18T09:31:24.047Z,27168.00
2018-10-18T09:32:24.054Z,29344.00
2018-10-18T09:33:24.060Z,27008.00
2018-10-18T09:34:24.118Z,26944.00
2018-10-18T09:35:24.072Z,27648.00
2018-10-18T09:36:25.211Z,27680.00
2018-10-18T09:37:24.084Z,27296.00
2018-10-18T09:38:24.172Z,27648.00
2018-10-18T09:39:25.268Z,28448.00
2018-10-18T09:40:24.105Z,28192.00
2018-10-18T09:41:24.106Z,27808.00
2018-10-18T09:42:24.266Z,27232.00
2018-10-18T09:43:24.117Z,25856.00
2018-10-18T09:44:24.193Z,25504.00
2018-10-18T09:45:24.132Z,24864.00
2018-10-18T09:46:24.135Z,24192.00
2018-10-18T09:47:24.145Z,24064.00
2018-10-18T09:48:25.520Z,22976.00
2018-10-18T09:49:24.181Z,22400.00
2018-10-18T09:50:24.163Z,22464.00
2018-10-18T09:51:24.170Z,23776.00
2018-10-18T09:52:24.174Z,26944.00
2018-10-18T09:53:24.354Z,27552.00
2018-10-18T09:54:24.212Z,26816.00
2018-10-18T09:55:24.200Z,26144.00
2018-10-18T09:56:24.188Z,26528.00
2018-10-18T09:57:24.196Z,30016.00
2018-10-18T09:58:24.201Z,34880.00
2018-10-18T09:59:24.234Z,28320.00
2018-10-18T10:00:24.211Z,34336.00
2018-10-18T10:01:24.221Z,29408.00
2018-10-18T10:02:24.223Z,30304.00
2018-10-18T10:03:24.230Z,35616.00
2018-10-18T10:04:24.345Z,31488.00
2018-10-18T10:05:24.235Z,38208.00
2018-10-18T10:06:24.245Z,32352.00
2018-10-18T10:07:24.255Z,37696.00
2018-10-18T10:08:24.258Z,36832.00
2018-10-18T10:09:24.301Z,39648.00
2018-10-18T10:10:24.276Z,28192.00
2018-10-18T10:11:24.311Z,29312.00
2018-10-18T10:12:24.288Z,29344.00
2018-10-18T10:13:24.387Z,30496.00
2018-10-18T10:14:24.332Z,29376.00
2018-10-18T10:15:24.341Z,36128.00
2018-10-18T10:16:24.318Z,34272.00
2018-10-18T10:17:24.363Z,35424.00
2018-10-18T10:18:24.355Z,33472.00
2018-10-18T10:19:24.341Z,43872.00
2018-10-18T10:20:24.381Z,44544.00
2018-10-18T10:21:24.357Z,32608.00
2018-10-18T10:22:24.370Z,31584.00
2018-10-18T10:23:24.378Z,33344.00
2018-10-18T10:24:24.436Z,37312.00
2018-10-18T10:25:24.418Z,46016.00
2018-10-18T10:26:24.407Z,36224.00
2018-10-18T10:27:24.410Z,35456.00
2018-10-18T10:28:24.420Z,35328.00
2018-10-18T10:29:24.431Z,35584.00
2018-10-18T10:30:24.543Z,37728.00
2018-10-18T10:31:24.449Z,36416.00
2018-10-18T10:32:24.456Z,36704.00
2018-10-18T10:33:24.488Z,41280.00
2018-10-18T10:34:24.475Z,37152.00
2018-10-18T10:35:24.553Z,37568.00
2018-10-18T10:36:24.499Z,37824.00
2018-10-18T10:37:24.506Z,37280.00
2018-10-18T10:38:24.508Z,35200.00
2018-10-18T10:39:24.524Z,34336.00
2018-10-18T10:40:24.564Z,33312.00
2018-10-18T10:41:24.540Z,31968.00
2018-10-18T10:42:24.553Z,33120.00
2018-10-18T10:43:24.564Z,30208.00
2018-10-18T10:44:24.579Z,28352.00
2018-10-18T10:45:24.625Z,27104.00
2018-10-18T10:46:24.593Z,26496.00
2018-10-18T10:47:24.601Z,26400.00
2018-10-18T10:48:24.609Z,26976.00
2018-10-18T10:49:24.649Z,26848.00
2018-10-18T10:50:24.627Z,25984.00
2018-10-18T10:51:24.636Z,25056.00
2018-10-18T10:52:24.644Z,24416.00
2018-10-18T10:53:24.648Z,24032.00
2018-10-18T10:54:24.692Z,23776.00
2018-10-18T10:55:24.666Z,23648.00
2018-10-18T10:56:24.670Z,23552.00
2018-10-18T10:57:24.684Z,23264.00
2018-10-18T10:58:24.691Z,23424.00
2018-10-18T10:59:24.726Z,23424.00
2018-10-18T11:00:24.707Z,23200.00
2018-10-18T11:01:24.711Z,23264.00
2018-10-18T11:02:24.718Z,23744.00
2018-10-18T11:03:24.724Z,24544.00
2018-10-18T11:04:24.759Z,24928.00
2018-10-18T11:05:24.739Z,24864.00
2018-10-18T11:06:24.747Z,24768.00
2018-10-18T11:07:24.752Z,25120.00
2018-10-18T11:08:24.760Z,25408.00
2018-10-18T11:09:24.832Z,25568.00
2018-10-18T11:10:24.772Z,25216.00
2018-10-18T11:11:24.778Z,25056.00
2018-10-18T11:12:24.858Z,25088.00
2018-10-18T11:13:24.788Z,24800.00
2018-10-18T11:14:24.825Z,24992.00
2018-10-18T11:15:24.798Z,25568.00
2018-10-18T11:16:25.801Z,25888.00
2018-10-18T11:17:24.833Z,26400.00
2018-10-18T11:18:27.821Z,27200.00
2018-10-18T11:19:26.687Z,27872.00
2018-10-18T11:22:26.681Z,28768.00
2018-10-18T11:23:24.845Z,29120.00
2018-10-18T11:24:24.883Z,28256.00
2018-10-18T11:25:26.173Z,27136.00
2018-10-18T11:26:24.866Z,25120.00
2018-10-18T11:27:27.935Z,24032.00
2018-10-18T11:28:29.210Z,23936.00
2018-10-18T11:29:27.884Z,23904.00
2018-10-18T11:30:25.095Z,23680.00
2018-10-18T11:31:30.383Z,23040.00
2018-10-18T11:32:24.902Z,23360.00
2018-10-18T11:33:24.939Z,23904.00
2018-10-18T11:34:24.935Z,23520.00
2018-10-18T11:35:24.904Z,23232.00
2018-10-18T11:36:24.934Z,23232.00
2018-10-18T11:37:26.187Z,23680.00
2018-10-18T11:38:24.956Z,24544.00
2018-10-18T11:39:27.432Z,29504.00
2018-10-18T11:40:27.679Z,23456.00
2018-10-18T11:41:26.687Z,23168.00
2018-10-18T11:42:26.941Z,25920.00
2018-10-18T11:43:25.186Z,30592.00
2018-10-18T11:44:25.046Z,32896.00
2018-10-18T11:45:28.762Z,34464.00
2018-10-18T11:46:25.684Z,32544.00
2018-10-18T11:47:29.137Z,29984.00
2018-10-18T11:48:25.006Z,27808.00
2018-10-18T11:49:27.833Z,25280.00
2018-10-18T11:50:39.210Z,22208.00
2018-10-18T11:51:25.068Z,21024.00
2018-10-18T11:52:35.826Z,20800.00
2018-10-18T11:53:35.863Z,21248.00
2018-10-18T11:54:25.019Z,21184.00
2018-10-18T11:55:25.036Z,21056.00
2018-10-18T11:56:26.945Z,20896.00
2018-10-18T11:57:46.588Z,20704.00
2018-10-18T11:58:25.041Z,20768.00
2018-10-18T11:59:25.069Z,20352.00
2018-10-18T12:00:25.047Z,19840.00
2018-10-18T12:01:25.153Z,19936.00
2018-10-18T12:02:25.531Z,20064.00
2018-10-18T12:03:25.099Z,20288.00
2018-10-18T12:04:25.103Z,21440.00
2018-10-18T12:05:25.074Z,22464.00
2018-10-18T12:06:25.069Z,23168.00
2018-10-18T12:07:25.078Z,23936.00
2018-10-18T12:08:25.077Z,23648.00
2018-10-18T12:09:25.114Z,22848.00
2018-10-18T12:10:25.093Z,22144.00
2018-10-18T12:11:25.099Z,23744.00
2018-10-18T12:12:25.106Z,26720.00
2018-10-18T12:13:25.101Z,27392.00
2018-10-18T12:14:25.137Z,25792.00
2018-10-18T12:15:25.111Z,24192.00
2018-10-18T12:16:25.121Z,23616.00
2018-10-18T12:17:25.115Z,23776.00
2018-10-18T12:18:25.121Z,25472.00
2018-10-18T12:19:25.175Z,26816.00
2018-10-18T12:20:25.136Z,24896.00
2018-10-18T12:21:25.131Z,21632.00
2018-10-18T12:22:25.136Z,19168.00
2018-10-18T12:23:25.142Z,17164.00
2018-10-18T12:24:25.175Z,16572.00
2018-10-18T12:25:25.164Z,17236.00
2018-10-18T12:26:25.834Z,18176.00
2018-10-18T12:27:25.181Z,17792.00
2018-10-18T12:28:25.154Z,16028.00
2018-10-18T12:29:25.196Z,14960.00